This is the latest recevied weather packets stored in our database for station/object K1ABC. If no packets are shown the sender has not sent any weather packets the latest 1 day(s).
| Time | Temp. | Humidity | Pressure | Rain* | Wind** | Luminosity | Snow |
|---|---|---|---|---|---|---|---|
| 1778046374 | 18.33° C | 63% | 1008.2 hPa | 0 mm | - | - | - |
| 1778045419 | 18.33° C | 63% | 1008.3 hPa | 0 mm | - | - | - |
| 1778042895 | 18.33° C | 61% | 1008.6 hPa | 0 mm | - | - | - |
| 1778042694 | 18.33° C | 61% | 1008.6 hPa | 0 mm | - | - | - |
| 1778041660 | 18.89° C | 60% | 1008.5 hPa | 0 mm | - | - | - |
| 1778040887 | 18.89° C | 59% | 1008.5 hPa | 0 mm | - | - | - |
| 1778040564 | 18.89° C | 59% | 1008.4 hPa | 0 mm | - | - | - |
| 1778039616 | 19.44° C | 58% | 1008.4 hPa | 0 mm | - | - | - |
| 1778037147 | 20° C | 56% | 1008.3 hPa | 0 mm | - | - | - |
| 1778036208 | 20° C | 56% | 1008.2 hPa | 0 mm | - | - | - |
| 1778036011 | 20° C | 56% | 1008.2 hPa | 0 mm | - | - | - |
| 1778033952 | 21.11° C | 53% | 1008.3 hPa | 0 mm | - | - | - |
| 1778033510 | 21.11° C | 52% | 1008.3 hPa | 0 mm | - | - | - |
| 1778031334 | 21.11° C | 53% | 1008.3 hPa | 0 mm | - | - | - |
| 1778030632 | 21.11° C | 52% | 1008.4 hPa | 0 mm | - | - | - |
| 1778029099 | 21.67° C | 50% | 1007.5 hPa | 0 mm | - | - | - |
| 1778028639 | 21.67° C | 50% | 1007.3 hPa | 0 mm | - | - | - |
| 1778027940 | 22.22° C | 50% | 1006.9 hPa | 0 mm | - | - | - |
| 1778019488 | 26.11° C | 40% | 1004.4 hPa | 0 mm | - | - | - |
| 1778019173 | 26.11° C | 39% | 1004.3 hPa | 0 mm | - | - | - |
| 1778013734 | 28.33° C | 35% | 1003.6 hPa | 0 mm | - | - | - |
| 1778013158 | 28.33° C | 35% | 1003.8 hPa | 0 mm | - | - | - |
| 1778011894 | 28.33° C | 35% | 1003.9 hPa | 0 mm | - | - | - |
| 1778009994 | 28.89° C | 35% | 1004 hPa | 0 mm | - | - | - |
| 1778009299 | 28.33° C | 35% | 1004.3 hPa | 0 mm | - | - | - |
* Rain latest hour (hover to see other rain measurements)
** Current wind speed in m/s (hover to see current wind gust speed)